Flight Track Log - Related Links

Times and Time Zones

All times are in EDT time to prevent confusion due to time zone crossing. See the UPS2950 flight status page for this flight to view local times or setup timezone preferences in your user account.

Time Position Orientation Groundspeed Altitude Reporting Facility
EDT Latitude Longitude Course Direction KTS MPH feet Rate Location/Type
Wed 03:54:33 PM 38.1590 -85.7400 163° South 160 184 1,000  Level FlightAware ADS-B
Wed 03:55:03 PM 38.1370 -85.7330 166° South 182 209 1,900 1,964 Climbing FlightAware ADS-B
Wed 03:55:28 PM 38.1150 -85.7330 180° South 212 244 2,800 2,250 Climbing FlightAware ADS-B
Wed 03:55:43 PM 38.0990 -85.7360 188° South 230 265 3,400 2,400 Climbing FlightAware ADS-B
Wed 03:55:58 PM 38.0870 -85.7470 216° Southwest 243 280 4,000 3,000 Climbing FlightAware ADS-B
Wed 03:56:13 PM 38.0780 -85.7670 240° Southwest 250 288 4,900 3,450 Climbing FlightAware ADS-B
Wed 03:56:38 PM 38.0700 -85.8020 254° West 261 300 6,300 3,709 Climbing FlightAware ADS-B
Wed 03:57:08 PM 38.0670 -85.8480 265° West 260 299 8,300 3,600 Climbing FlightAware ADS-B
Wed 03:57:33 PM 38.0650 -85.8860 266° West 262 302 9,600 1,636 Climbing FlightAware ADS-B
Wed 03:58:03 PM 38.0610 -85.9330 264° West 261 300 9,800 300 Climbing FlightAware ADS-B
Wed 03:58:33 PM 38.0580 -85.9790 265° West 264 304 9,900 738 Climbing FlightAware ADS-B
Wed 03:59:08 PM 38.0550 -86.0390 266° West 312 359 10,600 1,575 Climbing FlightAware ADS-B
Wed 03:59:53 PM 38.0490 -86.1280 265° West 361 415 12,000 1,933 Climbing FlightAware ADS-B
Wed 04:00:38 PM 38.0420 -86.2260 265° West 397 457 13,500 2,118 Climbing FlightAware ADS-B
Wed 04:01:18 PM 38.0350 -86.3250 265° West 420 483 15,000 2,471 Climbing FlightAware ADS-B
Wed 04:02:03 PM 38.0280 -86.4370 265° West 433 498 17,000 2,460 Climbing FlightAware ADS-B
Wed 04:02:58 PM 38.0190 -86.5710 265° West 449 517 19,100 2,211 Climbing FlightAware ADS-B
Wed 04:03:38 PM 38.0100 -86.6830 264° West 465 535 20,500 2,118 Climbing FlightAware ADS-B
Wed 04:04:23 PM 38.0010 -86.8060 265° West 474 545 22,100 2,047 Climbing FlightAware ADS-B
Wed 04:05:03 PM 37.9930 -86.9210 265° West 485 558 23,400 1,800 Climbing FlightAware ADS-B
Wed 04:05:43 PM 37.9850 -87.0350 265° West 497 572 24,500 2,188 Climbing FlightAware ADS-B
Wed 04:06:28 PM 37.9750 -87.1690 265° West 493 567 26,500 2,824 Climbing FlightAware ADS-B
Wed 04:07:08 PM 37.9660 -87.2800 264° West 477 549 28,500 3,750 Climbing FlightAware ADS-B
Wed 04:07:48 PM 37.9570 -87.3870 264° West 439 505 31,500 3,176 Climbing FlightAware ADS-B
Wed 04:08:33 PM 37.9490 -87.4990 265° West 424 488 33,000 1,059 Climbing FlightAware ADS-B
Wed 04:09:13 PM 37.9410 -87.5920 264° West 419 482 33,000  Level FlightAware ADS-B
Wed 04:09:53 PM 37.9340 -87.6950 265° West 419 482 33,000  Level FlightAware ADS-B
Wed 04:10:38 PM 37.9460 -87.8060 278° West 419 482 33,000  Level FlightAware ADS-B
Wed 04:11:18 PM 37.9770 -87.8960 294° West 418 481 33,000 706 Level FlightAware ADS-B
Wed 04:12:03 PM 38.0110 -87.9940 294° West 411 473 34,000 1,412 Climbing FlightAware ADS-B
Wed 04:12:43 PM 38.0420 -88.0820 294° West 413 475 35,000 1,271 Climbing FlightAware ADS-B
Wed 04:13:28 PM 38.0780 -88.1820 295° West 417 480 35,800 706 Climbing FlightAware ADS-B
Wed 04:14:08 PM 38.1090 -88.2690 294° West 420 483 36,000 141 Climbing FlightAware ADS-B
Wed 04:14:53 PM 38.1450 -88.3740 294° West 424 488 36,000  Level FlightAware ADS-B
Wed 04:15:33 PM 38.1770 -88.4620 295° West 419 482 36,000  Level FlightAware ADS-B
Wed 04:16:13 PM 38.2080 -88.5520 294° West 418 481 36,000  Level FlightAware ADS-B
Wed 04:16:58 PM 38.2450 -88.6580 294° West 421 484 36,000  Level FlightAware ADS-B
Wed 04:17:38 PM 38.2750 -88.7440 294° West 421 484 36,000 75 Level FlightAware ADS-B
Wed 04:18:18 PM 38.3060 -88.8340 294° West 420 483 36,100 71 Climbing FlightAware ADS-B
Wed 04:19:03 PM 38.3410 -88.9340 294° West 419 482 36,100 -71 Level FlightAware ADS-B
Wed 04:19:43 PM 38.3730 -89.0290 293° West 418 481 36,000 -71 Descending FlightAware ADS-B
Wed 04:20:28 PM 38.4070 -89.1280 294° West 416 479 36,000  Level FlightAware ADS-B
Wed 04:21:03 PM 38.4340 -89.2060 294° West 416 479 36,000  Level FlightAware ADS-B
Wed 04:22:03 PM 38.4790 -89.3390 293° West 415 478 36,000  Level FlightAware ADS-B
Wed 04:22:48 PM 38.5160 -89.4470 294° West 414 476 36,000  Level FlightAware ADS-B
Wed 04:23:28 PM 38.5420 -89.5230 294° West 413 475 36,000  Level FlightAware ADS-B
Wed 04:24:03 PM 38.5690 -89.6040 293° West 413 475 36,000  Level FlightAware ADS-B
Wed 04:24:53 PM 38.6100 -89.7240 294° West 413 475 36,000  Level FlightAware ADS-B
Wed 04:25:33 PM 38.6390 -89.8120 293° West 412 474 36,000  Level FlightAware ADS-B
Wed 04:26:18 PM 38.6730 -89.9130 293° West 412 474 36,000  Level FlightAware ADS-B
Wed 04:26:58 PM 38.7010 -89.9960 293° West 411 473 36,000  Level FlightAware ADS-B
Wed 04:27:53 PM 38.7430 -90.1250 293° West 411 473 36,000  Level FlightAware ADS-B
Wed 04:28:38 PM 38.7770 -90.2260 293° West 411 473 36,000  Level FlightAware ADS-B
Wed 04:29:18 PM 38.8060 -90.3140 293° West 411 473 36,000  Level FlightAware ADS-B
Wed 04:29:58 PM 38.8360 -90.4060 293° West 412 474 36,000  Level FlightAware ADS-B
Wed 04:30:43 PM 38.8640 -90.5090 289° West 408 470 36,000  Level FlightAware ADS-B
Wed 04:31:23 PM 38.8750 -90.6050 278° West 409 471 36,000  Level FlightAware ADS-B
Wed 04:32:03 PM 38.8870 -90.7040 279° West 412 474 36,000  Level FlightAware ADS-B
Wed 04:32:58 PM 38.9010 -90.8310 278° West 415 478 36,000  Level FlightAware ADS-B
Wed 04:33:38 PM 38.9100 -90.9140 278° West 415 478 36,000  Level FlightAware ADS-B
Wed 04:34:28 PM 38.9220 -91.0180 278° West 415 478 36,000  Level FlightAware ADS-B
Wed 04:35:08 PM 38.9310 -91.1010 278° West 415 478 36,000 67 Level FlightAware ADS-B
Wed 04:35:58 PM 38.9520 -91.2720 279° West 421 484 36,100  Climbing FlightAware ADS-B
Wed 04:36:48 PM 38.9670 -91.4050 278° West 420 483 36,000 -71 Descending FlightAware ADS-B
Wed 04:37:23 PM 38.9750 -91.4870 277° West 420 483 36,000  Level FlightAware ADS-B
Wed 04:38:08 PM 38.9850 -91.5860 277° West 420 483 36,000  Level FlightAware ADS-B
Wed 04:38:53 PM 38.9990 -91.7060 279° West 418 481 36,000  Level FlightAware ADS-B
Wed 04:39:33 PM 39.0090 -91.8020 278° West 418 481 36,000  Level FlightAware ADS-B
Wed 04:40:13 PM 39.0170 -91.8860 277° West 418 481 36,000  Level FlightAware ADS-B
Wed 04:40:53 PM 39.0250 -91.9700 277° West 418 481 36,000  Level FlightAware ADS-B
Wed 04:41:43 PM 39.0350 -92.0750 277° West 418 481 36,000  Level FlightAware ADS-B
Wed 04:42:23 PM 39.0430 -92.1590 277° West 418 481 36,000  Level FlightAware ADS-B
Wed 04:43:03 PM 39.0510 -92.2430 277° West 418 481 36,000  Level FlightAware ADS-B
Wed 04:43:43 PM 39.0590 -92.3270 277° West 418 481 36,000  Level FlightAware ADS-B
Wed 04:44:23 PM 39.0670 -92.4110 277° West 418 481 36,000  Level FlightAware ADS-B
Wed 04:45:13 PM 39.0770 -92.5160 277° West 418 481 36,000  Level FlightAware ADS-B
Wed 04:45:53 PM 39.0850 -92.6010 277° West 418 481 36,000  Level FlightAware ADS-B
Wed 04:46:33 PM 39.1180 -92.8650 279° West 431 496 36,000  Level FlightAware ADS-B
Wed 04:47:18 PM 39.1300 -92.9840 277° West 432 497 36,000  Level FlightAware ADS-B
Wed 04:47:48 PM 39.1370 -93.0580 277° West 432 497 36,000  Level FlightAware ADS-B
Wed 04:48:28 PM 39.1470 -93.1600 277° West 434 499 36,000  Level FlightAware ADS-B
Wed 04:49:08 PM 39.1560 -93.2660 276° West 435 501 36,000  Level FlightAware ADS-B
Wed 04:49:53 PM 39.1670 -93.3820 277° West 439 505 36,000 71 Level FlightAware ADS-B
Wed 04:50:33 PM 39.1770 -93.4860 277° West 442 509 36,100 71 Climbing FlightAware ADS-B
Wed 04:51:18 PM 39.1880 -93.6040 277° West 445 512 36,100  Level FlightAware ADS-B
Wed 04:51:58 PM 39.1970 -93.7070 276° West 444 511 36,100  Level FlightAware ADS-B
Wed 04:52:38 PM 39.2070 -93.8120 277° West 443 510 36,100  Level FlightAware ADS-B
Wed 04:53:23 PM 39.2170 -93.9320 276° West 440 506 36,100 -71 Level FlightAware ADS-B
Wed 04:54:03 PM 39.2260 -94.0360 276° West 438 504 36,000 -71 Descending FlightAware ADS-B
Wed 04:54:48 PM 39.2360 -94.1500 276° West 436 502 36,000  Level FlightAware ADS-B
Wed 04:55:28 PM 39.2450 -94.2540 276° West 438 504 36,000  Level FlightAware ADS-B
Wed 04:56:08 PM 39.2540 -94.3610 276° West 441 507 36,000  Level FlightAware ADS-B
Wed 04:56:53 PM 39.2640 -94.4790 276° West 446 513 36,000 71 Level FlightAware ADS-B
Wed 04:57:33 PM 39.2730 -94.5880 276° West 448 516 36,100 918 Climbing FlightAware ADS-B
Wed 04:58:18 PM 39.2820 -94.7040 276° West 441 507 37,300 1,341 Climbing FlightAware ADS-B
Wed 04:58:58 PM 39.2900 -94.8080 276° West 439 505 38,000 494 Climbing FlightAware ADS-B
Wed 04:59:43 PM 39.2980 -94.9260 275° West 440 506 38,000  Level FlightAware ADS-B
Wed 05:00:23 PM 39.3040 -95.0310 274° West 446 513 38,000  Level FlightAware ADS-B
Wed 05:01:03 PM 39.3110 -95.1400 275° West 444 511 38,000  Level FlightAware ADS-B
Wed 05:01:43 PM 39.3170 -95.2430 274° West 443 510 38,000  Level FlightAware ADS-B
Wed 05:02:28 PM 39.3240 -95.3610 274° West 445 512 38,000  Level FlightAware ADS-B
Wed 05:03:23 PM 39.3330 -95.5080 275° West 449 517 38,000 67 Level FlightAware ADS-B
Wed 05:03:58 PM 39.3380 -95.5990 274° West 448 516 38,100 71 Climbing FlightAware ADS-B
Wed 05:04:48 PM 39.3460 -95.7320 274° West 446 513 38,100 -67 Level FlightAware ADS-B
Wed 05:05:28 PM 39.3520 -95.8380 274° West 448 516 38,000 -71 Descending FlightAware ADS-B
Wed 05:06:13 PM 39.3580 -95.9580 274° West 450 518 38,000  Level FlightAware ADS-B
Wed 05:06:48 PM 39.3630 -96.0470 274° West 450 518 38,000  Level FlightAware ADS-B
Wed 05:07:33 PM 39.3700 -96.1750 274° West 451 519 38,000 67 Level FlightAware ADS-B
Wed 05:08:18 PM 39.3760 -96.2940 274° West 453 521 38,100 71 Climbing FlightAware ADS-B
Wed 05:08:58 PM 39.3820 -96.4020 274° West 453 521 38,100  Level FlightAware ADS-B
Wed 05:09:38 PM 39.3870 -96.5130 273° West 455 524 38,100 -71 Level FlightAware ADS-B
Wed 05:10:23 PM 39.3930 -96.6350 274° West 456 525 38,000 -75 Descending FlightAware ADS-B
Wed 05:10:58 PM 39.3980 -96.7310 274° West 458 527 38,000  Level FlightAware ADS-B
Wed 05:11:43 PM 39.4040 -96.8560 274° West 458 527 38,000  Level FlightAware ADS-B
Wed 05:12:28 PM 39.4090 -96.9740 273° West 459 528 38,000  Level FlightAware ADS-B
Wed 05:13:23 PM 39.4150 -97.1150 273° West 459 528 38,000  Level FlightAware ADS-B
Wed 05:14:03 PM 39.4190 -97.2080 273° West 459 528 38,000  Level FlightAware ADS-B
Wed 05:14:43 PM 39.4230 -97.3010 273° West 459 528 38,000  Level FlightAware ADS-B
Wed 05:15:38 PM 39.4310 -97.4950 273° West 469 540 38,000  Level FlightAware ADS-B
Wed 05:16:28 PM 39.4380 -97.6380 274° West 474 545 38,000 67 Level FlightAware ADS-B
Wed 05:17:08 PM 39.4420 -97.7550 273° West 477 549 38,100 75 Climbing FlightAware ADS-B
Wed 05:17:48 PM 39.4470 -97.8660 273° West 479 551 38,100  Level FlightAware ADS-B
Wed 05:18:38 PM 39.4510 -98.0030 272° West 481 554 38,100  Level FlightAware ADS-B
Wed 05:19:28 PM 39.4550 -98.1260 272° West 481 554 38,100  Level FlightAware ADS-B
Wed 05:20:08 PM 39.4620 -98.2740 274° West 488 562 38,100  Level FlightAware ADS-B
Wed 05:21:03 PM 39.4660 -98.4290 272° West 489 563 38,100  Level FlightAware ADS-B
Wed 05:21:43 PM 39.4690 -98.5280 272° West 489 563 38,100  Level FlightAware ADS-B
Wed 05:22:23 PM 39.4720 -98.6280 272° West 489 563 38,100  Level FlightAware ADS-B
Wed 05:23:13 PM 39.4750 -98.7520 272° West 489 563 38,100  Level FlightAware ADS-B
Wed 05:23:53 PM 39.4780 -98.8520 272° West 489 563 38,100  Level FlightAware ADS-B
Wed 05:24:33 PM 39.4800 -98.9510 272° West 489 563 38,100  Level FlightAware ADS-B
Wed 05:25:13 PM 39.4830 -99.0510 272° West 489 563 38,100  Level FlightAware ADS-B
Wed 05:25:53 PM 39.4860 -99.1510 272° West 489 563 38,100  Level FlightAware ADS-B
Wed 05:26:43 PM 39.4890 -99.2750 272° West 489 563 38,100  Level FlightAware ADS-B
Wed 05:27:23 PM 39.4920 -99.3750 272° West 489 563 38,100  Level FlightAware ADS-B
Wed 05:28:03 PM 39.4940 -99.4740 272° West 489 563 38,100  Level FlightAware ADS-B
Wed 05:28:43 PM 39.4970 -99.5740 272° West 489 563 38,100  Level FlightAware ADS-B
Wed 05:29:23 PM 39.5000 -99.6740 272° West 489 563 38,100  Level FlightAware ADS-B
Wed 05:30:13 PM 39.5030 -99.7980 272° West 489 563 38,100 -56 Level FlightAware ADS-B
Wed 05:31:10 PM 39.5114 -100.1744 272° West 479 551 38,000 -15 Descending Denver Center
Wed 05:36:58 PM 39.5260 -101.1650 272° West 468 539 38,000  Level FlightAware ADS-B
Wed 05:37:28 PM 39.5267 -101.2520 271° West 468 539 38,000  Level FlightAware ADS-B
Wed 05:37:59 PM 39.5273 -101.3360 271° West 467 537 38,000  Level FlightAware ADS-B
Wed 05:38:30 PM 39.5278 -101.4250 270° West 467 537 38,000  Level FlightAware ADS-B
Wed 05:39:05 PM 39.5282 -101.5220 270° West 467 537 38,000  Level FlightAware ADS-B
Wed 05:39:36 PM 39.5289 -101.6090 271° West 467 537 38,000  Level FlightAware ADS-B
Wed 05:40:08 PM 39.5294 -101.6980 270° West 468 539 38,000 97 Level FlightAware ADS-B
Wed 05:40:38 PM 39.5299 -101.7820 270° West 468 539 38,100 100 Climbing FlightAware ADS-B
Wed 05:41:08 PM 39.5300 -101.8660 270° West 469 540 38,100  Level FlightAware ADS-B
Wed 05:41:39 PM 39.5303 -101.9530 270° West 469 540 38,100  Level FlightAware ADS-B
Wed 05:42:09 PM 39.5305 -102.0380 270° West 469 540 38,100  Level FlightAware ADS-B
Wed 05:42:39 PM 39.5307 -102.1220 270° West 469 540 38,100  Level FlightAware ADS-B
Wed 05:43:10 PM 39.5308 -102.2030 270° West 469 540 38,100  Level FlightAware ADS-B
Wed 05:43:41 PM 39.5309 -102.2930 270° West 468 539 38,100  Level FlightAware ADS-B
Wed 05:44:12 PM 39.5308 -102.3820 270° West 467 537 38,100 -98 Level FlightAware ADS-B
Wed 05:44:42 PM 39.5306 -102.4660 270° West 467 537 38,000  Descending FlightAware ADS-B
Wed 05:45:14 PM 39.5305 -102.5550 270° West 465 535 38,100  Climbing FlightAware ADS-B
Wed 05:45:45 PM 39.5304 -102.6410 270° West 465 535 38,000 -97 Descending FlightAware ADS-B
Wed 05:46:16 PM 39.5300 -102.7270 270° West 464 534 38,000  Level FlightAware ADS-B
Wed 05:46:48 PM 39.5295 -102.8160 270° West 463 533 38,000  Level FlightAware ADS-B
Wed 05:47:19 PM 39.5290 -102.9010 270° West 462 532 38,000  Level FlightAware ADS-B
Wed 05:47:50 PM 39.5286 -102.9870 270° West 461 531 38,000  Level FlightAware ADS-B
Wed 05:48:21 PM 39.5282 -103.0730 270° West 461 531 38,000  Level FlightAware ADS-B
Wed 05:48:52 PM 39.5276 -103.1580 270° West 460 529 38,000  Level FlightAware ADS-B
Wed 05:49:22 PM 39.5271 -103.2400 270° West 459 528 38,000  Level FlightAware ADS-B
Wed 05:49:53 PM 39.5264 -103.3220 269° West 458 527 38,000  Level FlightAware ADS-B
Wed 05:50:24 PM 39.5256 -103.4070 269° West 457 526 38,000  Level FlightAware ADS-B
Wed 05:50:54 PM 39.5248 -103.4920 269° West 456 525 38,000  Level FlightAware ADS-B
Wed 05:51:25 PM 39.5236 -103.5740 269° West 455 524 38,000  Level FlightAware ADS-B
Wed 05:51:55 PM 39.5225 -103.6580 269° West 454 522 38,000 98 Level FlightAware ADS-B
Wed 05:52:26 PM 39.5213 -103.7420 269° West 453 521 38,100 97 Climbing FlightAware ADS-B
Wed 05:52:57 PM 39.5202 -103.8230 269° West 452 520 38,100  Level FlightAware ADS-B
Wed 05:53:27 PM 39.5192 -103.8930 269° West 451 519 38,100  Level FlightAware ADS-B
Wed 05:53:36 PM 39.5190 -103.9170 269° West 451 519 38,100 -136 Level FlightAware ADS-B
Wed 05:54:11 PM 39.5183 -103.9790 269° West 451 519 38,000 -91 Descending FlightAware ADS-B
Wed 05:54:42 PM 39.5164 -104.1080 269° West 450 518 38,000  Level FlightAware ADS-B
Wed 05:55:12 PM 39.5152 -104.1890 269° West 449 517 38,000  Level FlightAware ADS-B
Wed 05:55:42 PM 39.5137 -104.2700 269° West 449 517 38,000  Level FlightAware ADS-B
Wed 05:56:14 PM 39.5124 -104.3530 269° West 449 517 38,000  Level FlightAware ADS-B
Wed 05:56:46 PM 39.5107 -104.4390 269° West 449 517 38,000  Level FlightAware ADS-B
Wed 05:57:16 PM 39.5092 -104.5220 269° West 451 519 38,000  Level FlightAware ADS-B
Wed 05:57:47 PM 39.5077 -104.6060 269° West 452 520 38,000 97 Level FlightAware ADS-B
Wed 05:58:18 PM 39.5060 -104.6900 269° West 453 521 38,100 97 Climbing FlightAware ADS-B
Wed 05:58:49 PM 39.5042 -104.7710 268° West 453 521 38,100  Level FlightAware ADS-B
Wed 05:59:20 PM 39.5024 -104.8570 268° West 452 520 38,100 -97 Level FlightAware ADS-B
Wed 05:59:51 PM 39.5006 -104.9380 268° West 448 516 38,000 -98 Descending FlightAware ADS-B
Wed 06:00:21 PM 39.4986 -105.0190 268° West 451 519 38,000  Level FlightAware ADS-B
Wed 06:01:01 PM 39.4960 -105.1300 268° West 455 524 38,000  Level FlightAware ADS-B
Wed 06:01:32 PM 39.4939 -105.2140 268° West 458 527 38,000 98 Level FlightAware ADS-B
Wed 06:02:02 PM 39.4919 -105.2970 268° West 460 529 38,100 100 Climbing FlightAware ADS-B
Wed 06:02:32 PM 39.4897 -105.3790 268° West 463 533 38,100  Level FlightAware ADS-B
Wed 06:03:07 PM 39.4869 -105.4760 268° West 464 534 38,100  Level FlightAware ADS-B
Wed 06:03:37 PM 39.4847 -105.5600 268° West 464 534 38,100  Level FlightAware ADS-B
Wed 06:04:12 PM 39.4820 -105.6560 268° West 462 532 38,100 -91 Level FlightAware ADS-B
Wed 06:04:43 PM 39.4793 -105.7420 268° West 460 529 38,000 -97 Descending FlightAware ADS-B
Wed 06:05:14 PM 39.4767 -105.8240 268° West 459 528 38,000  Level FlightAware ADS-B
Wed 06:05:44 PM 39.4742 -105.9090 268° West 457 526 38,000  Level FlightAware ADS-B
Wed 06:06:14 PM 39.4715 -105.9910 268° West 456 525 38,000  Level FlightAware ADS-B
Wed 06:06:44 PM 39.4690 -106.0720 268° West 455 524 38,000  Level FlightAware ADS-B
Wed 06:07:14 PM 39.4665 -106.1540 268° West 455 524 38,000  Level FlightAware ADS-B
Wed 06:07:45 PM 39.4639 -106.2350 268° West 455 524 38,000  Level FlightAware ADS-B
Wed 06:08:16 PM 39.4609 -106.3200 267° West 457 526 38,000  Level FlightAware ADS-B
Wed 06:08:46 PM 39.4579 -106.4050 267° West 460 529 38,000 98 Level FlightAware ADS-B
Wed 06:09:17 PM 39.4547 -106.4870 267° West 461 531 38,100 98 Climbing FlightAware ADS-B
Wed 06:09:47 PM 39.4513 -106.5720 267° West 461 531 38,100  Level FlightAware ADS-B
Wed 06:10:19 PM 39.4479 -106.6600 267° West 463 533 38,100  Level FlightAware ADS-B
Wed 06:10:50 PM 39.4448 -106.7430 267° West 462 532 38,100  Level FlightAware ADS-B
Wed 06:11:22 PM 39.4414 -106.8340 267° West 463 533 38,100  Level FlightAware ADS-B
Wed 06:11:52 PM 39.4384 -106.9170 267° West 463 533 38,100 -95 Level FlightAware ADS-B
Wed 06:12:25 PM 39.4381 -107.0060 270° West 465 535 38,000 -95 Descending FlightAware ADS-B
Wed 06:12:55 PM 39.4385 -107.0920 270° West 465 535 38,000  Level FlightAware ADS-B
Wed 06:13:28 PM 39.4389 -107.1810 270° West 464 534 38,000  Level FlightAware ADS-B
Wed 06:13:58 PM 39.4388 -107.2660 270° West 462 532 38,000  Level FlightAware ADS-B
Wed 06:14:31 PM 39.4385 -107.3550 270° West 463 533 38,000  Level FlightAware ADS-B
Wed 06:15:02 PM 39.4380 -107.4430 270° West 464 534 38,000  Level FlightAware ADS-B
Wed 06:15:33 PM 39.4376 -107.5290 270° West 465 535 38,000  Level FlightAware ADS-B
Wed 06:16:23 PM 39.4370 -107.6570 270° West 467 537 38,000  Level FlightAware ADS-B
Wed 06:17:03 PM 39.4360 -107.7710 269° West 467 537 38,000  Level FlightAware ADS-B
Wed 06:17:43 PM 39.4350 -107.8780 269° West 469 540 38,000 71 Level FlightAware ADS-B
Wed 06:18:28 PM 39.4340 -107.9920 269° West 469 540 38,100 71 Climbing FlightAware ADS-B
Wed 06:19:08 PM 39.4320 -108.1190 269° West 473 544 38,100 -71 Level FlightAware ADS-B
Wed 06:19:53 PM 39.4290 -108.2490 268° West 473 544 38,000 -71 Descending FlightAware ADS-B
Wed 06:20:33 PM 39.4060 -108.3480 253° West 469 540 38,000 75 Level FlightAware ADS-B
Wed 06:21:13 PM 39.3740 -108.4610 250° West 468 539 38,100 55 Climbing FlightAware ADS-B
Wed 06:22:23 PM 39.3700 -108.6550 269° West 476 548 38,100  Level FlightAware ADS-B
Wed 06:23:13 PM 39.3720 -108.7960 271° West 468 539 38,100  Level FlightAware ADS-B
Wed 06:24:03 PM 39.3570 -108.9310 262° West 465 535 38,100 -71 Level FlightAware ADS-B
Wed 06:24:38 PM 39.3460 -109.0320 262° West 463 533 38,000 -71 Descending FlightAware ADS-B
Wed 06:25:28 PM 39.3320 -109.1580 262° West 463 533 38,000  Level FlightAware ADS-B
Wed 06:26:08 PM 39.3180 -109.2780 261° West 461 531 38,000  Level FlightAware ADS-B
Wed 06:26:43 PM 39.3060 -109.3750 261° West 460 529 38,000  Level FlightAware ADS-B
Wed 06:27:33 PM 39.2920 -109.4980 262° West 460 529 38,000 34 Level FlightAware ADS-B
Wed 06:29:38 PM 39.2510 -109.8400 261° West 460 529 38,100 36 Climbing FlightAware ADS-B
Wed 06:30:18 PM 39.2370 -109.9540 261° West 462 532 38,100  Level FlightAware ADS-B
Wed 06:30:58 PM 39.2240 -110.0600 261° West 464 534 38,100  Level FlightAware ADS-B
Wed 06:31:43 PM 39.2100 -110.1750 261° West 464 534 38,100  Level FlightAware ADS-B
Wed 06:32:28 PM 39.1940 -110.3090 261° West 466 536 38,100  Level FlightAware ADS-B
Wed 06:33:08 PM 39.1800 -110.4150 260° West 465 535 38,100  Level FlightAware ADS-B
Wed 06:34:48 PM 39.1470 -110.6750 261° West 465 535 38,100  Level FlightAware ADS-B
Wed 06:35:43 PM 39.1270 -110.8260 260° West 465 535 38,100 -60 Level FlightAware ADS-B
Wed 06:36:28 PM 39.1090 -110.9650 261° West 467 537 38,000 -75 Descending FlightAware ADS-B
Wed 06:37:03 PM 39.0970 -111.0600 261° West 466 536 38,000  Level FlightAware ADS-B
Wed 06:37:48 PM 39.0800 -111.1890 260° West 465 535 38,000  Level FlightAware ADS-B
Wed 06:38:33 PM 39.0640 -111.3080 260° West 463 533 38,000  Level FlightAware ADS-B
Wed 06:39:13 PM 39.0490 -111.4190 260° West 462 532 38,000  Level FlightAware ADS-B
Wed 06:39:48 PM 39.0370 -111.5060 260° West 461 531 38,000  Level FlightAware ADS-B
Wed 06:40:33 PM 39.0220 -111.6160 260° West 461 531 38,000  Level FlightAware ADS-B
Wed 06:41:13 PM 39.0090 -111.7080 260° West 461 531 38,000  Level FlightAware ADS-B
Wed 06:41:58 PM 38.9890 -111.8570 260° West 463 533 38,000  Level FlightAware ADS-B
Wed 06:42:38 PM 38.9760 -111.9490 260° West 463 533 38,000  Level FlightAware ADS-B
Wed 06:43:28 PM 38.9600 -112.0650 260° West 463 533 38,000  Level FlightAware ADS-B
Wed 06:44:08 PM 38.9480 -112.1570 261° West 463 533 38,000  Level FlightAware ADS-B
Wed 06:44:48 PM 38.9350 -112.2490 260° West 463 533 38,000  Level FlightAware ADS-B
Wed 06:45:28 PM 38.9220 -112.3410 260° West 463 533 38,000  Level FlightAware ADS-B
Wed 06:46:08 PM 38.9100 -112.4330 261° West 463 533 38,000  Level FlightAware ADS-B
Wed 06:46:58 PM 38.8940 -112.5490 260° West 463 533 38,000  Level FlightAware ADS-B
Wed 06:47:38 PM 38.8810 -112.6410 260° West 463 533 38,000  Level FlightAware ADS-B
Wed 06:48:18 PM 38.8690 -112.7330 261° West 463 533 38,000  Level FlightAware ADS-B
Wed 06:48:58 PM 38.8560 -112.8250 260° West 463 533 38,000  Level FlightAware ADS-B
Wed 06:49:38 PM 38.8430 -112.9170 260° West 463 533 38,000  Level FlightAware ADS-B
Wed 06:50:28 PM 38.8270 -113.0320 260° West 463 533 38,000  Level FlightAware ADS-B
Wed 06:51:08 PM 38.8150 -113.1240 261° West 463 533 38,000  Level FlightAware ADS-B
Wed 06:51:48 PM 38.7631 -113.4036 261° West 437 503 38,000  Level Salt Lake Center
Wed 06:52:50 PM 38.7386 -113.5592 259° West 444 511 38,000  Level Salt Lake Center
Wed 06:53:51 PM 38.7156 -113.7133 259° West 445 512 38,000  Level Salt Lake Center
Wed 06:54:53 PM 38.6900 -113.8675 258° West 445 512 38,000 48 Level Salt Lake Center
Wed 06:55:55 PM 38.6661 -114.0228 259° West 448 516 38,100 49 Climbing Salt Lake Center
Wed 06:56:56 PM 38.6353 -114.2122 258° West 455 524 38,100  Level Salt Lake Center
Wed 06:57:58 PM 38.6106 -114.3678 259° West 450 518 38,100  Level Salt Lake Center
Wed 06:59:00 PM 38.5850 -114.5231 258° West 449 517 38,100 -49 Level Salt Lake Center
Wed 07:00:01 PM 38.5597 -114.6778 258° West 447 514 38,000 -49 Descending Salt Lake Center
Wed 07:01:03 PM 38.5333 -114.8314 258° West 446 513 38,000  Level Salt Lake Center
Wed 07:02:05 PM 38.5075 -114.9861 258° West 447 514 38,000  Level Salt Lake Center
Wed 07:03:06 PM 38.4817 -115.1383 258° West 442 509 38,000  Level Salt Lake Center
Wed 07:04:08 PM 38.4506 -115.3217 258° West 442 509 38,000  Level Salt Lake Center
Wed 07:05:10 PM 38.4250 -115.4739 258° West 443 510 38,000 49 Level Salt Lake Center
Wed 07:06:11 PM 38.3989 -115.6256 258° West 439 505 38,100  Climbing Salt Lake Center
Wed 07:07:13 PM 38.3717 -115.7769 257° West 440 506 38,000 -48 Descending Salt Lake Center
Wed 07:08:15 PM 38.3447 -115.9289 257° West 440 506 38,000 48 Level Salt Lake Center
Wed 07:09:17 PM 38.3175 -116.0811 257° West 440 506 38,100 48 Climbing Salt Lake Center
Wed 07:10:19 PM 38.2903 -116.2319 257° West 438 504 38,100  Level Salt Lake Center
Wed 07:11:20 PM 38.2578 -116.4147 257° West 441 507 38,100 -59 Level Salt Lake Center
Wed 07:12:01 PM 38.2406 -116.5056 256° West 440 506 38,000 -59 Descending Oakland Center
Wed 07:13:02 PM 38.2131 -116.6575 257° West 442 509 38,000 49 Level Oakland Center
Wed 07:14:04 PM 38.1856 -116.8097 257° West 441 507 38,100  Climbing Oakland Center
Wed 07:15:05 PM 38.1569 -116.9608 257° West 440 506 38,000 -72 Descending Oakland Center
Wed 07:15:27 PM 38.1458 -117.0217 257° West 440 506 38,000  Level Salt Lake Center
Wed 07:16:29 PM 38.1167 -117.1792 257° West 443 510 38,000 59 Level Salt Lake Center
Wed 07:17:08 PM 38.0956 -117.2800 255° West 451 519 38,100 60 Climbing Oakland Center
Wed 07:18:09 PM 38.0678 -117.4336 257° West 447 514 38,100 -49 Level Oakland Center
Wed 07:19:10 PM 38.0389 -117.5864 257° West 446 513 38,000  Descending Oakland Center
Wed 07:20:11 PM 38.0094 -117.7372 256° West 442 509 38,100  Climbing Oakland Center
Wed 07:21:13 PM 37.9994 -117.8928 265° West 444 511 38,000 -49 Descending Oakland Center
Wed 07:22:14 PM 37.9933 -118.0469 267° West 439 505 38,000  Level Oakland Center
Wed 07:23:15 PM 37.9856 -118.2317 267° West 437 503 38,000  Level Oakland Center
Wed 07:28:53 PM 37.9490 -119.0870 267° West 424 488 38,000  Level FlightAware ADS-B
Wed 07:29:43 PM 37.9430 -119.2080 266° West 418 481 38,000  Level FlightAware ADS-B
Wed 07:30:23 PM 37.9390 -119.3070 267° West 432 497 38,000  Level FlightAware ADS-B
Wed 07:30:58 PM 37.9350 -119.3970 267° West 445 512 38,000  Level FlightAware ADS-B
Wed 07:31:48 PM 37.9280 -119.5310 266° West 446 513 38,000  Level FlightAware ADS-B
Wed 07:32:28 PM 37.9230 -119.6310 266° West 438 504 38,000  Level FlightAware ADS-B
Wed 07:33:13 PM 37.9160 -119.7510 266° West 437 503 38,000  Level FlightAware ADS-B
Wed 07:33:48 PM 37.9120 -119.8350 267° West 436 502 38,000 -75 Level FlightAware ADS-B
Wed 07:34:33 PM 37.9060 -119.9520 266° West 430 495 37,900 -1,067 Descending FlightAware ADS-B
Wed 07:35:18 PM 37.8990 -120.0640 266° West 425 489 36,400 -2,550 Descending FlightAware ADS-B
Wed 07:35:53 PM 37.8950 -120.1510 267° West 432 497 34,500 -3,318 Descending FlightAware ADS-B
Wed 07:36:43 PM 37.8880 -120.2790 266° West 441 507 31,700 -3,533 Descending FlightAware ADS-B
Wed 07:37:23 PM 37.8820 -120.3830 266° West 443 510 29,200 -3,000 Descending FlightAware ADS-B
Wed 07:38:03 PM 37.8760 -120.4840 266° West 426 490 27,700 -2,259 Descending FlightAware ADS-B
Wed 07:38:48 PM 37.8700 -120.5890 266° West 408 470 26,000 -2,824 Descending FlightAware ADS-B
Wed 07:39:28 PM 37.8640 -120.6850 266° West 400 460 23,700 -3,150 Descending FlightAware ADS-B
Wed 07:40:08 PM 37.8580 -120.7800 265° West 395 455 21,800 -2,541 Descending FlightAware ADS-B
Wed 07:40:53 PM 37.8510 -120.8820 265° West 383 441 20,100 -2,329 Descending FlightAware ADS-B
Wed 07:41:33 PM 37.8460 -120.9730 266° West 369 425 18,500 -2,682 Descending FlightAware ADS-B
Wed 07:42:18 PM 37.8410 -121.0650 266° West 359 413 16,300 -3,176 Descending FlightAware ADS-B
Wed 07:42:58 PM 37.8360 -121.1450 265° West 351 404 14,000 -2,965 Descending FlightAware ADS-B
Wed 07:43:43 PM 37.8100 -121.2350 250° West 347 399 12,100 -1,694 Descending FlightAware ADS-B
Wed 07:44:23 PM 37.7860 -121.3050 247° West 318 366 11,600 -900 Descending FlightAware ADS-B
Wed 07:45:03 PM 37.7620 -121.3710 245° Southwest 292 336 10,900 -918 Descending FlightAware ADS-B
Wed 07:45:48 PM 37.7380 -121.4380 246° West 271 312 10,300 -857 Descending FlightAware ADS-B
Wed 07:46:13 PM 37.7250 -121.4740 245° Southwest 270 311 9,900 -873 Descending FlightAware ADS-B
Wed 07:46:43 PM 37.7100 -121.5180 247° West 275 316 9,500 -800 Descending FlightAware ADS-B
Wed 07:47:13 PM 37.6940 -121.5630 246° West 266 306 9,100 -873 Descending FlightAware ADS-B
Wed 07:47:38 PM 37.6820 -121.5970 246° West 271 312 8,700 -982 Descending FlightAware ADS-B
Wed 07:48:08 PM 37.6730 -121.6440 256° West 273 314 8,200 -982 Descending FlightAware ADS-B
Wed 07:48:33 PM 37.6700 -121.6830 264° West 264 304 7,800 -982 Descending FlightAware ADS-B
Wed 07:49:03 PM 37.6630 -121.7300 259° West 266 306 7,300 -1,200 Descending FlightAware ADS-B
Wed 07:49:33 PM 37.6570 -121.7760 261° West 268 308 6,600 -1,418 Descending FlightAware ADS-B
Wed 07:49:58 PM 37.6530 -121.8130 262° West 267 307 6,000 -1,418 Descending FlightAware ADS-B
Wed 07:50:28 PM 37.6480 -121.8580 262° West 265 305 5,300 -1,418 Descending FlightAware ADS-B
Wed 07:50:53 PM 37.6430 -121.8990 261° West 262 302 4,700 -1,500 Descending FlightAware ADS-B
Wed 07:51:08 PM 37.6410 -121.9190 263° West 263 303 4,300 -1,467 Descending FlightAware ADS-B
Wed 07:51:38 PM 37.6350 -121.9640 260° West 257 296 3,600 -1,527 Descending FlightAware ADS-B
Wed 07:52:03 PM 37.6300 -122.0030 261° West 243 280 2,900 -1,200 Descending FlightAware ADS-B
Wed 07:52:33 PM 37.6250 -122.0410 261° West 214 246 2,500 -500 Descending FlightAware ADS-B
Wed 07:53:03 PM 37.6200 -122.0770 260° West 195 224 2,400 -218 Descending FlightAware ADS-B
Wed 07:53:28 PM 37.6250 -122.0990 286° West 170 196 2,300 -764 Descending FlightAware ADS-B
Wed 07:53:58 PM 37.6400 -122.1220 309° West 154 177 1,700 -982 Descending FlightAware ADS-B
Wed 07:54:23 PM 37.6520 -122.1400 310° West 144 166 1,400 -655 Descending FlightAware ADS-B
Wed 07:54:53 PM 37.6640 -122.1580 310° West 140 161 1,100 -700 Descending FlightAware ADS-B
Wed 07:55:23 PM 37.6770 -122.1770 311° West 139 160 700 -764 Descending FlightAware ADS-B
Wed 07:55:48 PM 37.6870 -122.1920 310° West 138 159 400 -720 Descending FlightAware ADS-B
Wed 07:56:18 PM 37.6990 -122.2110 309° West 136 157 -800 Descending FlightAware ADS-B

Login

Don't have an account? Register now (free) for customized features, flight alerts, and more!